createdAt,value
2022-10-26T00:00:48.493Z,0.00
2022-10-26T00:01:48.606Z,0.00
2022-10-26T00:02:48.684Z,0.00
2022-10-26T00:03:48.445Z,0.00
2022-10-26T00:04:48.425Z,0.00
2022-10-26T00:05:48.446Z,0.00
2022-10-26T00:06:48.395Z,0.00
2022-10-26T00:07:48.388Z,0.00
2022-10-26T00:08:48.378Z,0.00
2022-10-26T00:09:48.356Z,0.00
2022-10-26T00:10:48.364Z,0.00
2022-10-26T00:11:48.360Z,0.00
2022-10-26T00:12:48.571Z,0.00
2022-10-26T00:13:48.307Z,0.00
2022-10-26T00:14:48.301Z,0.00
2022-10-26T00:15:48.327Z,0.00
2022-10-26T00:16:48.270Z,0.00
2022-10-26T00:17:48.525Z,0.00
2022-10-26T00:18:48.245Z,0.00
2022-10-26T00:19:48.243Z,0.00
2022-10-26T00:20:48.236Z,0.00
2022-10-26T00:21:48.209Z,0.00
2022-10-26T00:22:48.207Z,0.00
2022-10-26T00:23:48.182Z,0.00
2022-10-26T00:24:48.153Z,0.00
2022-10-26T00:25:48.174Z,0.00
2022-10-26T00:26:48.143Z,0.00
2022-10-26T00:27:48.443Z,0.00
2022-10-26T00:28:48.112Z,0.00
2022-10-26T00:29:48.102Z,0.00
2022-10-26T00:30:48.091Z,0.00
2022-10-26T00:31:48.077Z,0.00
2022-10-26T00:32:48.054Z,0.00
2022-10-26T00:33:48.050Z,0.00
2022-10-26T00:34:48.019Z,0.00
2022-10-26T00:35:48.031Z,0.00
2022-10-26T00:36:48.007Z,0.00
2022-10-26T00:37:48.284Z,0.00
2022-10-26T00:38:47.980Z,0.00
2022-10-26T00:39:47.971Z,0.00
2022-10-26T00:40:47.954Z,0.00
2022-10-26T00:41:47.958Z,0.00
2022-10-26T00:42:48.163Z,0.00
2022-10-26T00:43:47.920Z,0.00
2022-10-26T00:44:47.910Z,0.00
2022-10-26T00:45:47.910Z,0.00
2022-10-26T00:46:47.898Z,0.00
2022-10-26T00:47:47.878Z,0.00
2022-10-26T00:48:47.859Z,0.00
2022-10-26T00:49:47.851Z,0.00
2022-10-26T00:50:47.855Z,0.00
2022-10-26T00:51:47.819Z,0.00
2022-10-26T00:52:48.282Z,0.00
2022-10-26T00:53:47.789Z,0.00
2022-10-26T00:54:47.787Z,0.00
2022-10-26T00:55:47.769Z,0.00
2022-10-26T00:56:47.747Z,0.00
2022-10-26T00:57:47.741Z,0.00
2022-10-26T00:58:47.718Z,0.00
2022-10-26T00:59:47.726Z,0.00
2022-10-26T01:00:47.706Z,0.00
2022-10-26T01:01:47.739Z,0.00
2022-10-26T01:02:48.116Z,0.00
2022-10-26T01:03:47.739Z,0.00
2022-10-26T01:04:47.645Z,0.00
2022-10-26T01:05:47.689Z,0.00
2022-10-26T01:06:47.619Z,0.00
2022-10-26T01:07:47.800Z,0.00
2022-10-26T01:08:47.586Z,0.00
2022-10-26T01:09:47.586Z,0.00
2022-10-26T01:10:47.586Z,0.00
2022-10-26T01:11:47.558Z,0.00
2022-10-26T01:12:47.545Z,0.00
2022-10-26T01:13:47.555Z,0.00
2022-10-26T01:14:47.536Z,0.00
2022-10-26T01:15:47.505Z,0.00
2022-10-26T01:16:47.505Z,0.00
2022-10-26T01:17:47.857Z,0.00
2022-10-26T01:18:47.465Z,0.00
2022-10-26T01:19:47.483Z,0.00
2022-10-26T01:20:47.435Z,0.00
2022-10-26T01:21:47.424Z,0.00
2022-10-26T01:22:47.423Z,0.00
2022-10-26T01:23:47.404Z,0.00
2022-10-26T01:24:47.394Z,0.00
2022-10-26T01:25:47.375Z,0.00
2022-10-26T01:26:47.421Z,0.00
2022-10-26T01:27:47.712Z,0.00
2022-10-26T01:28:47.303Z,0.00
2022-10-26T01:29:47.340Z,0.00
2022-10-26T01:30:47.323Z,0.00
2022-10-26T01:31:47.302Z,0.00
2022-10-26T01:32:47.310Z,0.00
2022-10-26T01:33:47.281Z,0.00
2022-10-26T01:34:47.301Z,0.00
2022-10-26T01:35:47.242Z,0.00
2022-10-26T01:36:47.231Z,0.00
2022-10-26T01:37:47.506Z,0.00
2022-10-26T01:38:47.211Z,0.00
2022-10-26T01:39:47.207Z,0.00
2022-10-26T01:40:47.179Z,0.00
2022-10-26T01:41:47.168Z,0.00
2022-10-26T01:42:47.102Z,0.00
2022-10-26T01:43:47.161Z,0.00
2022-10-26T01:44:47.132Z,0.00
2022-10-26T01:45:47.110Z,0.00
2022-10-26T01:46:47.105Z,0.00
2022-10-26T01:47:47.406Z,0.00
2022-10-26T01:48:47.070Z,0.00
2022-10-26T01:52:11.323Z,0.00
2022-10-26T01:53:08.544Z,0.00
2022-10-26T01:54:08.553Z,0.00
2022-10-26T01:55:08.554Z,0.00
2022-10-26T01:56:08.469Z,0.00
2022-10-26T01:57:08.511Z,0.00
2022-10-26T01:58:08.461Z,0.00
2022-10-26T01:59:08.494Z,0.00
2022-10-26T02:00:08.463Z,0.00
2022-10-26T02:01:08.480Z,0.00
2022-10-26T02:02:08.425Z,0.00
2022-10-26T02:03:08.415Z,0.00
2022-10-26T02:04:08.372Z,0.00
2022-10-26T02:05:08.382Z,0.00
2022-10-26T02:06:08.389Z,0.00
2022-10-26T02:07:08.342Z,0.00
2022-10-26T02:08:08.359Z,0.00
2022-10-26T02:09:08.341Z,0.00
2022-10-26T02:10:08.303Z,0.00
2022-10-26T02:11:08.307Z,0.00
2022-10-26T02:12:08.290Z,0.00
2022-10-26T02:13:08.259Z,0.00
2022-10-26T02:14:08.354Z,0.00
2022-10-26T02:15:08.228Z,0.00
2022-10-26T02:16:08.259Z,0.00
2022-10-26T02:17:08.227Z,0.00
2022-10-26T02:18:08.218Z,0.00
2022-10-26T02:19:08.209Z,0.00
2022-10-26T02:20:08.200Z,0.00
2022-10-26T02:21:08.178Z,0.00
2022-10-26T02:22:08.168Z,0.00
2022-10-26T02:23:08.154Z,0.00
2022-10-26T02:25:08.123Z,0.00
2022-10-26T02:26:08.083Z,0.00
2022-10-26T02:27:08.105Z,0.00
2022-10-26T02:28:08.106Z,0.00
2022-10-26T02:29:08.079Z,0.00
2022-10-26T02:30:08.017Z,0.00
2022-10-26T02:31:08.040Z,0.00
2022-10-26T02:32:08.027Z,0.00
2022-10-26T02:33:08.135Z,0.00
2022-10-26T02:34:08.037Z,0.00
2022-10-26T02:35:07.987Z,0.00
2022-10-26T02:36:07.976Z,0.00
2022-10-26T02:37:07.981Z,0.00
2022-10-26T02:38:07.965Z,0.00
2022-10-26T02:39:07.945Z,0.00
2022-10-26T02:40:07.927Z,0.00
2022-10-26T02:41:07.913Z,0.00
2022-10-26T02:42:07.906Z,0.00
2022-10-26T02:43:07.899Z,0.00
2022-10-26T02:44:07.905Z,0.00
2022-10-26T02:45:07.856Z,0.00
2022-10-26T02:46:07.859Z,0.00
2022-10-26T02:47:07.826Z,0.00
2022-10-26T02:48:07.836Z,0.00
2022-10-26T02:49:07.845Z,0.00
2022-10-26T02:50:07.817Z,0.00
2022-10-26T02:51:07.783Z,0.00
2022-10-26T02:52:07.774Z,0.00
2022-10-26T02:53:07.756Z,0.00
2022-10-26T02:54:07.785Z,0.00
2022-10-26T02:55:07.755Z,0.00
2022-10-26T02:56:07.722Z,0.00
2022-10-26T02:57:07.704Z,0.00
2022-10-26T02:58:07.723Z,0.00
2022-10-26T02:59:07.692Z,0.00
2022-10-26T03:00:07.740Z,0.00
2022-10-26T03:01:07.673Z,0.00
2022-10-26T03:02:07.645Z,0.00
2022-10-26T03:03:07.622Z,0.00
2022-10-26T03:04:07.769Z,0.00
2022-10-26T03:05:07.605Z,0.00
2022-10-26T03:06:07.635Z,0.00
2022-10-26T03:07:07.571Z,0.00
2022-10-26T03:08:07.570Z,0.00
2022-10-26T03:09:07.552Z,0.00
2022-10-26T03:10:07.491Z,0.00
2022-10-26T03:11:07.570Z,0.00
2022-10-26T03:12:07.470Z,0.00
2022-10-26T03:13:07.480Z,0.00
2022-10-26T03:14:07.534Z,0.00
2022-10-26T03:15:07.482Z,0.00
2022-10-26T03:16:07.460Z,0.00
2022-10-26T03:17:07.439Z,0.00
2022-10-26T03:18:07.449Z,0.00
2022-10-26T03:19:07.426Z,0.00
2022-10-26T03:20:07.420Z,0.00
2022-10-26T03:21:07.378Z,0.00
2022-10-26T03:22:07.388Z,0.00
2022-10-26T03:23:07.390Z,0.00
2022-10-26T03:24:07.377Z,0.00
2022-10-26T03:26:07.327Z,0.00
2022-10-26T03:27:07.316Z,0.00
2022-10-26T03:28:07.259Z,0.00
2022-10-26T03:29:07.287Z,0.00
2022-10-26T03:30:07.229Z,0.00
2022-10-26T03:31:07.287Z,0.00
2022-10-26T03:32:07.241Z,0.00
2022-10-26T03:33:07.234Z,0.00
2022-10-26T03:34:07.257Z,0.00
2022-10-26T03:35:07.215Z,0.00
2022-10-26T03:36:07.146Z,0.00
2022-10-26T03:37:07.176Z,0.00
2022-10-26T03:38:07.173Z,0.00
2022-10-26T03:39:07.177Z,0.00
2022-10-26T03:40:07.135Z,0.00
2022-10-26T03:41:07.132Z,0.00
2022-10-26T03:42:07.098Z,0.00
2022-10-26T03:43:07.107Z,0.00
2022-10-26T03:44:07.095Z,0.00
2022-10-26T03:45:07.090Z,0.00
2022-10-26T03:46:07.065Z,0.00
2022-10-26T03:47:07.045Z,0.00
2022-10-26T03:48:07.023Z,0.00
2022-10-26T03:49:06.984Z,0.00
2022-10-26T03:50:07.016Z,0.00
2022-10-26T03:51:06.946Z,0.00
2022-10-26T03:52:06.993Z,0.00
2022-10-26T03:53:06.963Z,0.00
2022-10-26T03:54:06.933Z,0.00
2022-10-26T03:55:06.942Z,0.00
2022-10-26T03:56:06.937Z,0.00
2022-10-26T03:57:06.923Z,0.00
2022-10-26T03:58:06.902Z,0.00
2022-10-26T03:59:06.912Z,0.00
2022-10-26T04:00:06.874Z,0.00
2022-10-26T04:01:06.905Z,0.00
2022-10-26T04:02:06.833Z,0.00
2022-10-26T04:03:06.782Z,0.00
2022-10-26T04:04:06.925Z,0.00
2022-10-26T04:05:06.810Z,0.00
2022-10-26T04:06:06.802Z,0.00
2022-10-26T04:07:06.819Z,0.00
2022-10-26T04:08:06.785Z,0.00
2022-10-26T04:09:06.768Z,0.00
2022-10-26T04:10:06.702Z,0.00
2022-10-26T04:11:06.740Z,0.00
2022-10-26T04:12:06.679Z,0.00
2022-10-26T04:13:06.691Z,0.00
2022-10-26T04:14:06.703Z,0.00
2022-10-26T04:15:06.739Z,0.00
2022-10-26T04:16:06.670Z,0.00
2022-10-26T04:17:06.688Z,0.00
2022-10-26T04:18:06.639Z,0.00
2022-10-26T04:19:06.650Z,0.00
2022-10-26T04:20:06.621Z,0.00
2022-10-26T04:21:06.607Z,0.00
2022-10-26T04:22:06.589Z,0.00
2022-10-26T04:23:06.582Z,0.00
2022-10-26T04:24:06.573Z,0.00
2022-10-26T04:25:06.562Z,0.00
2022-10-26T04:26:06.538Z,0.00
2022-10-26T04:27:06.516Z,0.00
2022-10-26T04:28:06.523Z,0.00
2022-10-26T04:29:06.498Z,0.00
2022-10-26T04:30:06.480Z,0.00
2022-10-26T04:31:06.467Z,0.00
2022-10-26T04:32:06.457Z,0.00
2022-10-26T04:33:06.447Z,0.00
2022-10-26T04:34:06.427Z,0.00
2022-10-26T04:35:06.420Z,0.00
2022-10-26T04:36:06.424Z,0.00
2022-10-26T04:37:06.386Z,0.00
2022-10-26T04:38:06.396Z,0.00
2022-10-26T04:39:06.366Z,0.00
2022-10-26T04:41:06.306Z,0.00
2022-10-26T04:42:06.336Z,0.00
2022-10-26T04:43:06.327Z,0.00
2022-10-26T04:44:06.305Z,0.00
2022-10-26T04:45:06.280Z,0.00
2022-10-26T04:46:06.284Z,0.00
2022-10-26T04:47:06.256Z,0.00
2022-10-26T04:48:06.266Z,0.00
2022-10-26T04:49:06.234Z,0.00
2022-10-26T04:50:06.221Z,0.00
2022-10-26T04:51:06.174Z,0.00
2022-10-26T04:52:06.192Z,0.00
2022-10-26T04:53:06.183Z,0.00
2022-10-26T04:54:06.163Z,0.00
2022-10-26T04:55:06.180Z,0.00
2022-10-26T04:56:06.147Z,0.00
2022-10-26T04:57:06.123Z,0.00
2022-10-26T04:58:06.147Z,0.00
2022-10-26T04:59:06.092Z,0.00
2022-10-26T05:00:06.097Z,0.00
2022-10-26T05:01:06.151Z,0.00
2022-10-26T05:02:06.167Z,0.00
2022-10-26T05:03:06.069Z,0.00
2022-10-26T05:04:06.031Z,0.00
2022-10-26T05:05:07.858Z,0.00
2022-10-26T05:06:06.026Z,0.00
2022-10-26T05:07:05.971Z,0.00
2022-10-26T05:08:06.041Z,0.00
2022-10-26T05:09:05.910Z,0.00
2022-10-26T05:10:05.906Z,0.00
2022-10-26T05:11:05.941Z,0.00
2022-10-26T05:12:05.931Z,0.00
2022-10-26T05:13:05.972Z,0.00
2022-10-26T05:14:05.907Z,0.00
2022-10-26T05:15:07.832Z,0.00
2022-10-26T05:16:05.879Z,0.00
2022-10-26T05:17:05.859Z,0.00
2022-10-26T05:18:05.925Z,0.00
2022-10-26T05:19:05.829Z,4.00
2022-10-26T05:20:05.827Z,4.00
2022-10-26T05:21:05.810Z,0.00
2022-10-26T05:22:05.799Z,0.00
2022-10-26T05:23:05.750Z,4.00
2022-10-26T05:24:08.792Z,4.00
2022-10-26T05:25:06.738Z,0.00
2022-10-26T05:26:05.749Z,4.00
2022-10-26T05:27:05.739Z,4.00
2022-10-26T05:28:05.738Z,4.00
2022-10-26T05:29:05.717Z,4.00
2022-10-26T05:31:05.679Z,4.00
2022-10-26T05:32:05.677Z,4.00
2022-10-26T05:33:05.665Z,8.00
2022-10-26T05:34:05.658Z,8.00
2022-10-26T05:35:05.620Z,8.00
2022-10-26T05:36:05.635Z,12.00
2022-10-26T05:37:05.635Z,12.00
2022-10-26T05:38:05.544Z,16.00
2022-10-26T05:39:05.549Z,20.00
2022-10-26T05:40:05.527Z,20.00
2022-10-26T05:41:05.545Z,20.00
2022-10-26T05:42:05.607Z,28.00
2022-10-26T05:43:05.486Z,28.00
2022-10-26T05:44:05.506Z,36.00
2022-10-26T05:45:05.478Z,40.00
2022-10-26T05:46:05.486Z,40.00
2022-10-26T05:47:05.465Z,40.00
2022-10-26T05:48:05.394Z,44.00
2022-10-26T05:49:05.384Z,48.00
2022-10-26T05:50:05.395Z,52.00
2022-10-26T05:51:05.364Z,60.00
2022-10-26T05:52:05.355Z,72.00
2022-10-26T05:53:05.341Z,76.00
2022-10-26T05:54:05.324Z,80.00
2022-10-26T05:56:08.522Z,96.00
2022-10-26T05:57:06.315Z,108.00
2022-10-26T05:58:05.306Z,112.00
2022-10-26T05:59:05.263Z,116.00
2022-10-26T06:00:05.393Z,128.00
2022-10-26T06:01:05.426Z,140.00
2022-10-26T06:02:05.432Z,156.00
2022-10-26T06:03:05.203Z,172.00
2022-10-26T06:04:05.212Z,180.00
2022-10-26T06:05:05.182Z,184.00
2022-10-26T06:06:07.302Z,192.00
2022-10-26T06:07:05.162Z,200.00
2022-10-26T06:08:05.140Z,212.00
2022-10-26T06:09:05.132Z,224.00
2022-10-26T06:10:05.101Z,232.00
2022-10-26T06:11:05.112Z,248.00
2022-10-26T06:12:05.105Z,260.00
2022-10-26T06:13:05.135Z,272.00
2022-10-26T06:14:05.115Z,284.00
2022-10-26T06:15:05.100Z,300.00
2022-10-26T06:16:05.031Z,316.00
2022-10-26T06:17:05.018Z,328.00
2022-10-26T06:18:05.041Z,348.00
2022-10-26T06:19:05.007Z,368.00
2022-10-26T06:20:05.036Z,388.00
2022-10-26T06:21:05.020Z,412.00
2022-10-26T06:22:04.948Z,436.00
2022-10-26T06:23:04.939Z,464.00
2022-10-26T06:24:04.919Z,488.00
2022-10-26T06:25:04.908Z,520.00
2022-10-26T06:26:04.929Z,552.00
2022-10-26T06:27:04.887Z,584.00
2022-10-26T06:28:04.857Z,616.00
2022-10-26T06:29:04.870Z,648.00
2022-10-26T06:30:04.838Z,684.00
2022-10-26T06:31:04.838Z,720.00
2022-10-26T06:32:04.860Z,760.00
2022-10-26T06:33:11.645Z,800.00
2022-10-26T06:34:05.856Z,840.00
2022-10-26T06:35:07.155Z,888.00
2022-10-26T06:36:04.796Z,920.00
2022-10-26T06:37:04.768Z,952.00
2022-10-26T06:38:04.736Z,976.00
2022-10-26T06:39:04.730Z,1004.00
2022-10-26T06:40:04.735Z,1028.00
2022-10-26T06:41:04.738Z,1056.00
2022-10-26T06:42:04.716Z,1088.00
2022-10-26T06:43:04.685Z,1120.00
2022-10-26T06:44:04.656Z,1152.00
2022-10-26T06:45:04.697Z,1184.00
2022-10-26T06:46:04.673Z,1212.00
2022-10-26T06:47:04.647Z,1248.00
2022-10-26T06:48:04.666Z,1288.00
2022-10-26T06:49:04.604Z,1324.00
2022-10-26T06:50:04.596Z,1360.00
2022-10-26T06:51:04.571Z,1396.00
2022-10-26T06:52:04.554Z,1416.00
2022-10-26T06:53:04.545Z,1452.00
2022-10-26T06:54:04.525Z,1492.00
2022-10-26T06:55:04.584Z,1524.00
2022-10-26T06:56:08.819Z,1552.00
2022-10-26T06:57:05.559Z,1564.00
2022-10-26T06:58:04.513Z,1576.00
2022-10-26T06:59:06.316Z,1584.00
2022-10-26T07:00:04.511Z,1588.00
2022-10-26T07:01:04.571Z,1612.00
2022-10-26T07:02:06.556Z,1628.00
2022-10-26T07:03:04.463Z,1664.00
2022-10-26T07:04:04.446Z,1700.00
2022-10-26T07:05:04.432Z,1768.00
2022-10-26T07:06:04.403Z,1848.00
2022-10-26T07:07:04.370Z,1904.00
2022-10-26T07:08:04.352Z,1944.00
2022-10-26T07:09:04.368Z,2024.00
2022-10-26T07:10:04.335Z,2128.00
2022-10-26T07:11:04.304Z,2084.00
2022-10-26T07:12:04.330Z,2044.00
2022-10-26T07:13:04.301Z,2060.00
2022-10-26T07:14:04.281Z,2080.00
2022-10-26T07:15:04.336Z,2056.00
2022-10-26T07:16:04.341Z,2056.00
2022-10-26T07:17:04.310Z,2096.00
2022-10-26T07:18:04.221Z,2148.00
2022-10-26T07:19:04.224Z,2220.00
2022-10-26T07:20:04.200Z,2308.00
2022-10-26T07:21:04.182Z,2300.00
2022-10-26T07:22:04.184Z,2292.00
2022-10-26T07:23:04.158Z,2336.00
2022-10-26T07:24:04.157Z,2368.00
2022-10-26T07:25:04.145Z,2280.00
2022-10-26T07:26:04.160Z,2108.00
2022-10-26T07:27:04.143Z,1996.00
2022-10-26T07:28:04.108Z,1920.00
2022-10-26T07:29:04.121Z,1884.00
2022-10-26T07:30:04.080Z,1892.00
2022-10-26T07:31:04.077Z,1916.00
2022-10-26T07:32:04.038Z,1972.00
2022-10-26T07:33:04.058Z,2032.00
2022-10-26T07:34:03.998Z,2084.00
2022-10-26T07:35:04.008Z,2144.00
2022-10-26T07:36:04.091Z,2184.00
2022-10-26T07:37:03.968Z,2216.00
2022-10-26T07:38:03.947Z,2236.00
2022-10-26T07:39:03.969Z,2284.00
2022-10-26T07:40:06.453Z,2424.00
2022-10-26T07:41:03.916Z,2660.00
2022-10-26T07:42:03.927Z,2760.00
2022-10-26T07:43:03.885Z,3056.00
2022-10-26T07:44:03.869Z,3240.00
2022-10-26T07:45:03.906Z,3364.00
2022-10-26T07:46:03.972Z,4084.00
2022-10-26T07:47:03.837Z,3744.00
2022-10-26T07:48:04.111Z,2664.00
2022-10-26T07:49:03.836Z,2240.00
2022-10-26T07:50:03.795Z,2168.00
2022-10-26T07:51:03.779Z,2116.00
2022-10-26T07:52:03.756Z,2088.00
2022-10-26T07:53:03.745Z,2072.00
2022-10-26T07:54:03.770Z,2064.00
2022-10-26T07:55:03.744Z,2056.00
2022-10-26T07:56:03.820Z,2036.00
2022-10-26T07:58:03.686Z,1972.00
2022-10-26T07:59:03.678Z,1920.00
2022-10-26T08:00:03.664Z,1880.00
2022-10-26T08:01:03.762Z,1860.00
2022-10-26T08:02:03.697Z,1840.00
2022-10-26T08:03:03.626Z,1832.00
2022-10-26T08:04:03.604Z,1824.00
2022-10-26T08:05:03.597Z,1812.00
2022-10-26T08:06:03.624Z,1792.00
2022-10-26T08:07:03.556Z,1772.00
2022-10-26T08:08:03.551Z,1748.00
2022-10-26T08:09:03.544Z,1728.00
2022-10-26T08:10:03.520Z,1700.00
2022-10-26T08:11:03.514Z,1652.00
2022-10-26T08:12:03.490Z,1608.00
2022-10-26T08:13:03.522Z,1556.00
2022-10-26T08:14:03.465Z,1516.00
2022-10-26T08:15:03.467Z,1476.00
2022-10-26T08:16:03.488Z,1448.00
2022-10-26T08:17:03.464Z,1424.00
2022-10-26T08:18:03.462Z,1396.00
2022-10-26T08:19:03.404Z,1376.00
2022-10-26T08:20:03.394Z,1356.00
2022-10-26T08:21:10.769Z,1336.00
2022-10-26T08:22:04.447Z,1316.00
2022-10-26T08:23:03.347Z,1296.00
2022-10-26T08:24:03.335Z,1280.00
2022-10-26T08:25:03.333Z,1264.00
2022-10-26T08:26:03.303Z,1252.00
2022-10-26T08:27:03.310Z,1236.00
2022-10-26T08:28:03.293Z,1224.00
2022-10-26T08:29:03.266Z,1212.00
2022-10-26T08:30:03.252Z,1200.00
2022-10-26T08:31:03.267Z,1184.00
2022-10-26T08:32:03.243Z,1168.00
2022-10-26T08:33:03.242Z,1156.00
2022-10-26T08:34:03.206Z,1152.00
2022-10-26T08:35:03.219Z,1148.00
2022-10-26T08:36:03.205Z,1148.00
2022-10-26T08:37:03.174Z,1144.00
2022-10-26T08:38:03.146Z,1144.00
2022-10-26T08:39:03.136Z,1152.00
2022-10-26T08:40:03.444Z,1152.00
2022-10-26T08:41:03.132Z,1160.00
2022-10-26T08:42:03.134Z,1172.00
2022-10-26T08:43:03.079Z,1180.00
2022-10-26T08:44:03.081Z,1196.00
2022-10-26T08:45:03.084Z,1208.00
2022-10-26T08:46:03.043Z,1224.00
2022-10-26T08:47:03.022Z,1240.00
2022-10-26T08:48:03.022Z,1268.00
2022-10-26T08:49:03.003Z,1296.00
2022-10-26T08:50:02.981Z,1328.00
2022-10-26T08:51:02.984Z,1356.00
2022-10-26T08:52:02.972Z,1392.00
2022-10-26T08:53:02.952Z,1436.00
2022-10-26T08:54:02.942Z,1472.00
2022-10-26T08:55:02.934Z,1520.00
2022-10-26T08:56:02.922Z,1584.00
2022-10-26T08:57:02.927Z,1652.00
2022-10-26T08:58:02.884Z,1724.00
2022-10-26T08:59:02.892Z,1808.00
2022-10-26T09:00:02.874Z,1888.00
2022-10-26T09:01:02.877Z,1996.00
2022-10-26T09:02:02.951Z,2108.00
2022-10-26T09:03:02.811Z,2216.00
2022-10-26T09:04:02.840Z,2312.00
2022-10-26T09:05:02.804Z,2400.00
2022-10-26T09:06:02.778Z,2452.00
2022-10-26T09:07:02.761Z,2500.00
2022-10-26T09:08:02.760Z,2544.00
2022-10-26T09:09:02.741Z,2604.00
2022-10-26T09:10:02.747Z,2652.00
2022-10-26T09:11:02.702Z,2632.00
2022-10-26T09:12:02.713Z,2648.00
2022-10-26T09:13:02.755Z,2632.00
2022-10-26T09:14:02.668Z,2604.00
2022-10-26T09:15:02.672Z,2632.00
2022-10-26T09:16:02.644Z,3500.00
2022-10-26T09:17:02.716Z,4324.00
2022-10-26T09:18:02.630Z,4236.00
2022-10-26T09:19:03.024Z,3288.00
2022-10-26T09:20:02.610Z,3924.00
2022-10-26T09:21:02.570Z,2536.00
2022-10-26T09:22:02.550Z,2424.00
2022-10-26T09:23:02.549Z,2392.00
2022-10-26T09:24:02.539Z,2392.00
2022-10-26T09:25:05.425Z,2732.00
2022-10-26T09:26:03.510Z,3044.00
2022-10-26T09:27:02.550Z,2408.00
2022-10-26T09:28:02.493Z,2360.00
2022-10-26T09:29:02.483Z,3192.00
2022-10-26T09:30:02.453Z,2800.00
2022-10-26T09:31:02.450Z,2320.00
2022-10-26T09:32:02.449Z,2508.00
2022-10-26T09:33:02.423Z,2408.00
2022-10-26T09:34:02.400Z,2348.00
2022-10-26T09:35:02.383Z,2412.00
2022-10-26T09:36:02.366Z,3192.00
2022-10-26T09:37:02.360Z,3420.00
2022-10-26T09:38:02.402Z,3356.00
2022-10-26T09:39:02.340Z,3164.00
2022-10-26T09:40:02.310Z,2948.00
2022-10-26T09:41:02.301Z,3268.00
2022-10-26T09:42:02.318Z,3256.00
2022-10-26T09:43:02.309Z,3272.00
2022-10-26T09:44:02.258Z,3280.00
2022-10-26T09:45:02.327Z,3288.00
2022-10-26T09:46:02.279Z,2716.00
2022-10-26T09:47:02.230Z,2796.00
2022-10-26T09:48:05.181Z,2240.00
2022-10-26T09:50:02.184Z,2236.00
2022-10-26T09:51:04.616Z,2244.00
2022-10-26T09:52:02.217Z,2356.00
2022-10-26T09:53:02.148Z,2428.00
2022-10-26T09:54:02.118Z,2528.00
2022-10-26T09:55:02.122Z,2624.00
2022-10-26T09:56:02.091Z,2708.00
2022-10-26T09:57:02.105Z,2780.00
2022-10-26T09:58:02.071Z,2844.00
2022-10-26T09:59:02.083Z,3016.00
2022-10-26T10:00:02.047Z,2900.00
2022-10-26T10:01:02.031Z,2888.00
2022-10-26T10:02:02.087Z,2880.00
2022-10-26T10:03:02.097Z,2904.00
2022-10-26T10:04:02.000Z,2892.00
2022-10-26T10:05:02.016Z,3160.00
2022-10-26T10:06:01.964Z,3412.00
2022-10-26T10:07:01.950Z,3252.00
2022-10-26T10:08:01.933Z,3356.00
2022-10-26T10:09:01.966Z,2968.00
2022-10-26T10:10:01.940Z,3056.00
2022-10-26T10:11:01.894Z,3160.00
2022-10-26T10:12:01.891Z,3256.00
2022-10-26T10:13:01.871Z,3524.00
2022-10-26T10:14:01.887Z,3520.00
2022-10-26T10:15:01.837Z,3068.00
2022-10-26T10:16:01.830Z,3264.00
2022-10-26T10:17:01.845Z,2988.00
2022-10-26T10:18:01.800Z,2996.00
2022-10-26T10:19:01.806Z,3004.00
2022-10-26T10:20:01.782Z,3080.00
2022-10-26T10:21:01.770Z,3108.00
2022-10-26T10:22:01.761Z,3228.00
2022-10-26T10:23:01.763Z,3004.00
2022-10-26T10:24:01.721Z,3340.00
2022-10-26T10:25:01.742Z,2872.00
2022-10-26T10:26:01.702Z,2628.00
2022-10-26T10:27:01.699Z,2608.00
2022-10-26T10:28:01.672Z,2484.00
2022-10-26T10:29:01.666Z,2476.00
2022-10-26T10:30:04.253Z,2396.00
2022-10-26T10:31:01.621Z,2376.00
2022-10-26T10:32:01.631Z,2376.00
2022-10-26T10:33:01.602Z,2408.00
2022-10-26T10:34:01.591Z,2444.00
2022-10-26T10:35:01.592Z,2464.00
2022-10-26T10:36:01.570Z,2464.00
2022-10-26T10:37:01.580Z,2468.00
2022-10-26T10:38:01.546Z,2432.00
2022-10-26T10:39:01.520Z,2412.00
2022-10-26T10:40:01.514Z,2400.00
2022-10-26T10:41:01.504Z,2384.00
2022-10-26T10:42:01.491Z,2320.00
2022-10-26T10:43:01.461Z,2288.00
2022-10-26T10:44:01.481Z,2260.00
2022-10-26T10:45:01.440Z,2244.00
2022-10-26T10:46:01.503Z,2232.00
2022-10-26T10:47:01.421Z,2216.00
2022-10-26T10:48:01.412Z,2224.00
2022-10-26T10:49:01.391Z,2224.00
2022-10-26T10:50:01.399Z,2236.00
2022-10-26T10:51:01.373Z,2252.00
2022-10-26T10:52:01.362Z,2272.00
2022-10-26T10:53:01.351Z,2276.00
2022-10-26T10:54:01.340Z,2252.00
2022-10-26T10:55:01.332Z,2196.00
2022-10-26T10:56:01.292Z,2144.00
2022-10-26T10:57:01.309Z,2096.00
2022-10-26T10:58:01.283Z,2068.00
2022-10-26T10:59:01.250Z,2064.00
2022-10-26T11:00:01.271Z,2060.00
2022-10-26T11:01:01.223Z,2064.00
2022-10-26T11:02:01.345Z,2040.00
2022-10-26T11:03:01.222Z,2028.00
2022-10-26T11:04:01.338Z,2044.00
2022-10-26T11:05:01.186Z,2052.00
2022-10-26T11:06:01.192Z,2040.00
2022-10-26T11:07:01.238Z,2004.00
2022-10-26T11:08:01.172Z,1972.00
2022-10-26T11:09:01.124Z,1952.00
2022-10-26T11:10:01.124Z,1940.00
2022-10-26T11:11:01.111Z,1932.00
2022-10-26T11:12:01.113Z,1888.00
2022-10-26T11:13:01.091Z,1828.00
2022-10-26T11:14:01.076Z,1776.00
2022-10-26T11:15:01.064Z,1752.00
2022-10-26T11:16:01.075Z,1720.00
2022-10-26T11:17:01.042Z,1696.00
2022-10-26T11:18:01.013Z,1652.00
2022-10-26T11:19:00.992Z,1596.00
2022-10-26T11:20:01.028Z,1548.00
2022-10-26T11:21:00.985Z,1500.00
2022-10-26T11:22:01.014Z,1468.00
2022-10-26T11:23:00.983Z,1440.00
2022-10-26T11:24:00.934Z,1428.00
2022-10-26T11:25:00.904Z,1424.00
2022-10-26T11:26:00.936Z,1424.00
2022-10-26T11:27:00.904Z,1440.00
2022-10-26T11:28:00.899Z,1452.00
2022-10-26T11:29:00.884Z,1456.00
2022-10-26T11:30:00.854Z,1476.00
2022-10-26T11:31:00.837Z,1484.00
2022-10-26T11:32:00.873Z,1500.00
2022-10-26T11:33:00.835Z,1500.00
2022-10-26T11:34:00.817Z,1500.00
2022-10-26T11:35:00.783Z,1504.00
2022-10-26T11:36:00.778Z,1516.00
2022-10-26T11:37:00.774Z,1512.00
2022-10-26T11:38:00.744Z,1508.00
2022-10-26T11:39:04.013Z,1492.00
2022-10-26T11:40:01.733Z,1484.00
2022-10-26T11:41:00.725Z,1468.00
2022-10-26T11:42:00.715Z,1460.00
2022-10-26T11:43:00.694Z,1456.00
2022-10-26T11:44:00.778Z,1472.00
2022-10-26T11:45:00.664Z,1484.00
2022-10-26T11:46:00.649Z,1472.00
2022-10-26T11:47:00.648Z,1464.00
2022-10-26T11:48:00.625Z,1476.00
2022-10-26T11:49:00.598Z,1492.00
2022-10-26T11:50:00.595Z,1532.00
2022-10-26T11:51:00.576Z,1568.00
2022-10-26T11:52:00.556Z,1612.00
2022-10-26T11:53:00.546Z,1636.00
2022-10-26T11:54:00.598Z,1652.00
2022-10-26T11:55:00.568Z,1672.00
2022-10-26T11:56:00.505Z,1660.00
2022-10-26T11:57:00.484Z,1652.00
2022-10-26T11:58:00.486Z,1616.00
2022-10-26T12:00:00.466Z,1560.00
2022-10-26T12:01:00.455Z,1516.00
2022-10-26T12:02:00.444Z,1468.00
2022-10-26T12:03:00.448Z,1412.00
2022-10-26T12:04:00.405Z,1368.00
2022-10-26T12:05:00.396Z,1344.00
2022-10-26T12:06:00.415Z,1308.00
2022-10-26T12:07:00.396Z,1296.00
2022-10-26T12:08:00.378Z,1280.00
2022-10-26T12:09:00.387Z,1280.00
2022-10-26T12:10:00.335Z,1288.00
2022-10-26T12:11:00.342Z,1300.00
2022-10-26T12:12:00.306Z,1304.00
2022-10-26T12:13:00.298Z,1288.00
2022-10-26T12:14:00.255Z,1276.00
2022-10-26T12:15:00.289Z,1244.00
2022-10-26T12:16:04.601Z,1208.00
2022-10-26T12:17:00.228Z,1188.00
2022-10-26T12:18:00.217Z,1164.00
2022-10-26T12:19:00.225Z,1136.00
2022-10-26T12:20:00.237Z,1116.00
2022-10-26T12:21:00.186Z,1096.00
2022-10-26T12:22:00.197Z,1076.00
2022-10-26T12:23:00.136Z,1068.00
2022-10-26T12:24:00.128Z,1060.00
2022-10-26T12:25:00.115Z,1044.00
2022-10-26T12:26:00.096Z,1028.00
2022-10-26T12:27:00.115Z,1036.00
2022-10-26T12:28:00.118Z,1052.00
2022-10-26T12:29:00.076Z,1088.00
2022-10-26T12:30:00.057Z,1124.00
2022-10-26T12:31:00.039Z,1164.00
2022-10-26T12:32:00.015Z,1192.00
2022-10-26T12:33:00.037Z,1196.00
2022-10-26T12:34:00.030Z,1200.00
2022-10-26T12:35:00.015Z,1212.00
2022-10-26T12:36:00.033Z,1220.00
2022-10-26T12:37:00.007Z,1240.00
2022-10-26T12:37:59.955Z,1260.00
2022-10-26T12:38:59.932Z,1288.00
2022-10-26T12:39:59.946Z,1296.00
2022-10-26T12:40:59.926Z,1300.00
2022-10-26T12:41:59.934Z,1296.00
2022-10-26T12:42:59.866Z,1292.00
2022-10-26T12:43:59.876Z,1276.00
2022-10-26T12:44:59.846Z,1268.00
2022-10-26T12:45:59.855Z,1276.00
2022-10-26T12:46:59.829Z,1280.00
2022-10-26T12:48:03.626Z,1260.00
2022-10-26T12:49:00.811Z,1228.00